Time;durP1;ratioP1;P1;durP2;ratioP2;P2;SDS_P1;SDS_P2;PMS_P1;PMS_P2;Temp;Humidity;BMP_temperature;BMP_pressure;BME280_temperature;BME280_humidity;BME280_pressure;Samples;Min_cycle;Max_cycle;Signal;HPM_P1;HPM_P2
2023/03/22 00:00:01;;;;;;;5.87;3.47;;;10.10;93.10;;;;;;1891795;76;21129;-58
2023/03/22 00:02:29;;;;;;;6.55;4.05;;;10.10;93.20;;;;;;1891772;76;21614;-58
2023/03/22 00:04:59;;;;;;;6.05;3.08;;;10.10;93.20;;;;;;1891707;76;21074;-58
2023/03/22 00:07:28;;;;;;;3.98;3.37;;;10.10;93.20;;;;;;1891691;76;21178;-57
2023/03/22 00:09:57;;;;;;;3.35;2.70;;;10.10;93.10;;;;;;1891707;76;21070;-58
2023/03/22 00:12:26;;;;;;;7.50;3.47;;;10.00;93.00;;;;;;1891669;76;21232;-58
2023/03/22 00:14:55;;;;;;;4.17;3.12;;;9.90;93.00;;;;;;1891822;76;21124;-58
2023/03/22 00:17:24;;;;;;;5.40;3.30;;;9.90;93.10;;;;;;1891952;76;21174;-58
2023/03/22 00:19:57;;;;;;;5.47;3.33;;;9.80;93.10;;;;;;1891959;76;21126;-57
2023/03/22 00:22:26;;;;;;;4.92;3.30;;;9.80;93.20;;;;;;1891936;76;21600;-58
2023/03/22 00:24:55;;;;;;;6.45;3.85;;;9.80;93.30;;;;;;1892038;76;21240;-58
2023/03/22 00:27:24;;;;;;;6.62;3.58;;;9.70;93.20;;;;;;1892009;76;21192;-57
2023/03/22 00:29:53;;;;;;;6.40;3.58;;;9.70;93.20;;;;;;1891785;76;21115;-58
2023/03/22 00:32:23;;;;;;;3.77;3.17;;;9.70;93.20;;;;;;1891798;76;21669;-58
2023/03/22 00:34:52;;;;;;;9.05;3.67;;;9.60;93.10;;;;;;1891944;76;21135;-58
2023/03/22 00:37:21;;;;;;;9.90;4.20;;;9.60;93.20;;;;;;1891883;76;21064;-57
2023/03/22 00:39:50;;;;;;;5.95;3.40;;;9.60;93.30;;;;;;1891835;76;21095;-58
2023/03/22 00:42:19;;;;;;;6.15;3.72;;;9.50;93.20;;;;;;1891797;76;22112;-57
2023/03/22 00:44:49;;;;;;;7.05;3.52;;;9.50;93.20;;;;;;1891851;76;21694;-57
2023/03/22 00:47:18;;;;;;;10.00;4.42;;;9.50;93.20;;;;;;1891788;76;21180;-57
2023/03/22 00:49:48;;;;;;;6.78;4.60;;;9.50;93.20;;;;;;1891767;76;21167;-57
2023/03/22 00:52:17;;;;;;;7.22;4.85;;;9.50;93.40;;;;;;1891776;76;21264;-58
2023/03/22 00:54:46;;;;;;;8.28;4.83;;;9.50;93.20;;;;;;1891822;76;21107;-58
2023/03/22 00:57:16;;;;;;;6.80;4.90;;;9.50;93.30;;;;;;1891818;76;21183;-58
2023/03/22 00:59:45;;;;;;;7.83;4.20;;;9.50;93.20;;;;;;1891822;76;21043;-58
2023/03/22 01:02:14;;;;;;;7.10;4.58;;;9.50;93.20;;;;;;1891790;76;21103;-58
2023/03/22 01:04:45;;;;;;;6.90;4.75;;;9.50;92.90;;;;;;1891834;76;21062;-58
2023/03/22 01:07:22;;;;;;;5.28;4.30;;;9.40;93.10;;;;;;1891910;76;21034;-58
2023/03/22 01:09:47;;;;;;;6.50;5.28;;;9.40;93.20;;;;;;1889688;76;21502;-58
2023/03/22 01:12:17;;;;;;;9.20;5.37;;;9.40;93.30;;;;;;1891381;76;21090;-58
2023/03/22 01:14:47;;;;;;;7.00;4.78;;;9.40;93.20;;;;;;1891931;76;21025;-58
2023/03/22 01:17:16;;;;;;;8.03;4.10;;;9.30;92.60;;;;;;1891771;76;21221;-57
2023/03/22 01:19:45;;;;;;;4.78;3.52;;;9.10;92.30;;;;;;1891939;76;21152;-58
2023/03/22 01:22:14;;;;;;;3.75;3.35;;;8.90;92.60;;;;;;1891856;76;21045;-58
2023/03/22 01:24:44;;;;;;;5.55;3.55;;;8.70;92.80;;;;;;1892048;76;21083;-58
2023/03/22 01:27:13;;;;;;;10.28;4.78;;;8.60;93.20;;;;;;1891986;76;21266;-58
2023/03/22 01:29:42;;;;;;;4.75;2.87;;;8.70;93.40;;;;;;1891953;76;21111;-58
2023/03/22 01:32:12;;;;;;;5.67;3.15;;;8.70;93.50;;;;;;1892002;76;21151;-58
2023/03/22 01:34:41;;;;;;;3.80;2.80;;;8.70;93.20;;;;;;1892182;76;21157;-58
2023/03/22 01:37:10;;;;;;;3.98;2.95;;;8.70;93.10;;;;;;1891960;76;21182;-57
2023/03/22 01:39:41;;;;;;;3.92;2.62;;;8.60;93.20;;;;;;1891637;76;21064;-58
2023/03/22 01:42:15;;;;;;;2.92;2.10;;;8.60;93.00;;;;;;1891967;76;21676;-58
2023/03/22 01:44:46;;;;;;;4.22;2.67;;;8.40;92.70;;;;;;1892223;76;21147;-58
2023/03/22 01:47:15;;;;;;;3.10;2.80;;;8.30;93.20;;;;;;1887418;76;21184;-58
2023/03/22 01:49:44;;;;;;;3.05;2.10;;;8.30;93.40;;;;;;1891968;76;21171;-57
2023/03/22 01:52:15;;;;;;;3.02;2.30;;;8.30;93.20;;;;;;1892053;76;21267;-57
2023/03/22 01:54:53;;;;;;;3.65;2.47;;;8.30;93.40;;;;;;1840826;76;21226;-58
2023/03/22 01:57:27;;;;;;;2.92;2.22;;;8.20;93.20;;;;;;1891002;76;21155;-57
2023/03/22 01:59:57;;;;;;;4.37;2.77;;;8.30;93.50;;;;;;1891999;76;21293;-58
2023/03/22 02:02:45;;;;;;;4.42;2.60;;;8.30;93.60;;;;;;1892013;76;21167;-58
2023/03/22 02:05:16;;;;;;;3.27;2.80;;;8.40;93.60;;;;;;1890141;76;21122;-58
2023/03/22 02:07:46;;;;;;;4.80;3.20;;;8.50;93.70;;;;;;1891119;76;21741;-57
2023/03/22 02:10:18;;;;;;;3.77;2.50;;;8.60;93.60;;;;;;1869993;77;21189;-58
2023/03/22 02:13:21;;;;;;;4.05;3.10;;;8.60;93.60;;;;;;1869312;77;21241;-58
2023/03/22 02:16:30;;;;;;;4.00;2.87;;;8.70;93.50;;;;;;1868696;77;21304;-58
2023/03/22 02:19:18;;;;;;;5.80;2.72;;;8.80;93.50;;;;;;1869272;77;21244;-58
2023/03/22 02:21:59;;;;;;;4.30;2.90;;;8.80;93.50;;;;;;1870197;77;21063;-58
2023/03/22 02:24:57;;;;;;;4.28;3.00;;;8.80;93.40;;;;;;1870136;77;21108;-58
2023/03/22 02:27:48;;;;;;;6.33;3.05;;;8.80;93.50;;;;;;1869119;77;21278;-58
2023/03/22 02:30:26;;;;;;;6.05;2.77;;;8.90;93.50;;;;;;1870002;77;21003;-58
2023/03/22 02:33:16;;;;;;;5.22;2.90;;;9.00;93.60;;;;;;1870129;77;21538;-58
2023/03/22 02:35:56;;;;;;;8.53;2.80;;;9.00;93.70;;;;;;1868788;77;21156;-58
2023/03/22 02:38:45;;;;;;;4.87;2.55;;;9.10;93.40;;;;;;1869459;77;21111;-58
2023/03/22 02:41:16;;;;;;;5.83;2.83;;;9.10;93.50;;;;;;1870122;77;21244;-59
2023/03/22 02:44:00;;;;;;;5.12;3.27;;;9.10;93.40;;;;;;1869270;77;21213;-59
2023/03/22 02:46:47;;;;;;;8.08;3.27;;;9.00;93.30;;;;;;1869835;77;21626;-59
2023/03/22 02:49:37;;;;;;;11.03;3.72;;;9.10;93.40;;;;;;1869062;77;21180;-59
2023/03/22 02:52:11;;;;;;;16.87;4.33;;;9.10;93.40;;;;;;1870080;77;21547;-59
2023/03/22 02:54:46;;;;;;;13.22;3.42;;;9.10;93.40;;;;;;1870070;77;21152;-59
2023/03/22 02:57:30;;;;;;;8.50;4.17;;;9.10;93.50;;;;;;1870188;77;21050;-58
2023/03/22 03:00:01;;;;;;;17.75;4.97;;;9.10;93.50;;;;;;1869481;77;21318;-59
2023/03/22 03:02:32;;;;;;;4.40;3.80;;;9.10;93.40;;;;;;1870278;77;21627;-59
2023/03/22 03:05:02;;;;;;;5.95;3.90;;;9.10;93.30;;;;;;1870237;77;21144;-59
2023/03/22 03:07:32;;;;;;;8.03;4.97;;;9.10;93.40;;;;;;1870160;77;21340;-59
2023/03/22 03:10:02;;;;;;;15.58;6.55;;;9.10;93.50;;;;;;1869911;76;21188;-58
2023/03/22 03:12:31;;;;;;;10.00;5.72;;;9.10;93.50;;;;;;1869990;77;21151;-58
2023/03/22 03:15:00;;;;;;;9.60;4.55;;;9.10;93.50;;;;;;1870085;77;21055;-58
2023/03/22 03:18:05;;;;;;;10.60;5.17;;;9.10;93.40;;;;;;1869932;77;21212;-58
2023/03/22 03:20:37;;;;;;;7.90;4.50;;;9.10;93.50;;;;;;1870095;77;21176;-59
2023/03/22 03:23:12;;;;;;;13.55;4.58;;;9.10;93.50;;;;;;1869724;77;21147;-59
2023/03/22 03:25:50;;;;;;;14.47;5.17;;;9.10;93.40;;;;;;1869930;77;21777;-59
2023/03/22 03:28:37;;;;;;;12.00;5.20;;;9.00;93.40;;;;;;1869223;77;21565;-59
2023/03/22 03:31:07;;;;;;;10.70;4.80;;;9.00;93.50;;;;;;1869931;77;21108;-59
2023/03/22 03:33:39;;;;;;;11.43;4.58;;;9.00;93.60;;;;;;1869871;77;21063;-59
2023/03/22 03:36:14;;;;;;;11.38;4.67;;;9.00;93.60;;;;;;1869813;77;21153;-59
2023/03/22 03:38:46;;;;;;;11.78;5.28;;;9.00;93.70;;;;;;1869999;77;21030;-59
2023/03/22 03:41:17;;;;;;;13.60;6.05;;;9.00;93.60;;;;;;1869978;76;21172;-59
2023/03/22 03:43:48;;;;;;;16.73;4.92;;;9.00;93.70;;;;;;1870023;77;21291;-58
2023/03/22 03:46:17;;;;;;;9.93;5.15;;;9.10;93.70;;;;;;1870108;77;21055;-59
2023/03/22 03:48:49;;;;;;;6.62;4.70;;;9.10;93.70;;;;;;1870004;77;21136;-59
2023/03/22 03:51:18;;;;;;;8.40;4.42;;;9.20;93.80;;;;;;1870033;77;21580;-59
2023/03/22 03:53:47;;;;;;;9.35;4.22;;;9.20;93.70;;;;;;1870050;77;21164;-59
2023/03/22 03:56:16;;;;;;;6.58;4.30;;;9.30;93.70;;;;;;1870104;77;21144;-59
2023/03/22 03:58:46;;;;;;;10.50;4.92;;;9.20;93.70;;;;;;1870122;77;21087;-59
2023/03/22 04:01:18;;;;;;;9.20;4.22;;;9.30;93.70;;;;;;1870017;77;21160;-59
2023/03/22 04:03:54;;;;;;;13.40;4.37;;;9.30;93.70;;;;;;1867963;77;21216;-59
2023/03/22 04:06:38;;;;;;;11.60;3.62;;;9.30;93.70;;;;;;1867369;76;21152;-59
2023/03/22 04:09:08;;;;;;;8.60;3.85;;;9.30;93.50;;;;;;1869584;76;21326;-59
2023/03/22 04:11:39;;;;;;;13.22;5.42;;;9.30;93.50;;;;;;1869860;77;21055;-59
2023/03/22 04:14:08;;;;;;;10.58;8.18;;;9.30;93.50;;;;;;1870154;77;21266;-59
2023/03/22 04:16:39;;;;;;;9.08;6.45;;;9.20;93.30;;;;;;1869965;77;21123;-58
2023/03/22 04:19:09;;;;;;;14.03;5.25;;;9.10;93.10;;;;;;1869402;77;21692;-59
2023/03/22 04:21:38;;;;;;;11.78;5.67;;;9.00;93.40;;;;;;1870091;77;21157;-59
2023/03/22 04:24:09;;;;;;;6.15;4.80;;;8.90;93.00;;;;;;1870074;76;21246;-59
2023/03/22 04:26:40;;;;;;;9.33;5.12;;;8.80;93.30;;;;;;1870020;77;21093;-59
2023/03/22 04:29:10;;;;;;;5.17;4.33;;;8.70;93.20;;;;;;1865615;77;21175;-59
2023/03/22 04:31:41;;;;;;;9.65;4.90;;;8.70;93.40;;;;;;1869737;77;21212;-59
2023/03/22 04:34:11;;;;;;;7.10;5.60;;;8.60;93.50;;;;;;1868286;77;21118;-59
2023/03/22 04:36:51;;;;;;;8.33;5.12;;;8.70;93.60;;;;;;1867864;77;21114;-59
2023/03/22 04:39:22;;;;;;;8.45;4.97;;;8.70;93.60;;;;;;1869237;77;21181;-59
2023/03/22 04:41:52;;;;;;;43.78;24.15;;;8.80;93.70;;;;;;1867797;77;21118;-59
2023/03/22 04:44:21;;;;;;;10.35;5.45;;;8.90;93.70;;;;;;1869986;77;21251;-59
2023/03/22 04:46:51;;;;;;;9.45;5.25;;;9.00;93.50;;;;;;1870034;77;21114;-59
2023/03/22 04:49:21;;;;;;;12.25;5.47;;;9.10;93.50;;;;;;1870167;77;21019;-59
2023/03/22 04:51:51;;;;;;;13.00;4.83;;;9.10;93.50;;;;;;1870002;77;21107;-59
2023/03/22 04:54:30;;;;;;;12.58;5.10;;;9.20;93.40;;;;;;1867823;77;21053;-59
2023/03/22 04:56:59;;;;;;;11.38;5.47;;;9.20;93.30;;;;;;1870116;77;21079;-59
2023/03/22 04:59:30;;;;;;;9.03;4.90;;;9.20;92.90;;;;;;1870198;77;21018;-58
2023/03/22 05:02:00;;;;;;;10.70;5.58;;;9.20;92.90;;;;;;1870085;77;21091;-59
2023/03/22 05:04:31;;;;;;;8.53;5.42;;;9.20;92.90;;;;;;1869622;77;21160;-59
2023/03/22 05:07:01;;;;;;;10.72;6.10;;;9.20;93.00;;;;;;1869421;77;21116;-58
2023/03/22 05:09:35;;;;;;;17.77;6.97;;;9.20;93.30;;;;;;1869167;76;21177;-57
2023/03/22 05:12:05;;;;;;;9.00;6.78;;;9.20;92.80;;;;;;1891800;76;21154;-58
2023/03/22 05:14:36;;;;;;;12.10;7.35;;;9.20;93.00;;;;;;1890549;76;21529;-59
2023/03/22 05:17:05;;;;;;;14.40;8.48;;;9.20;93.10;;;;;;1891653;76;21102;-58
2023/03/22 05:19:36;;;;;;;13.55;8.48;;;9.30;93.10;;;;;;1891884;76;21111;-58
2023/03/22 05:22:07;;;;;;;14.40;9.63;;;9.30;93.10;;;;;;1891672;76;21121;-58
2023/03/22 05:24:44;;;;;;;12.60;9.23;;;9.40;93.10;;;;;;1891299;76;21094;-59
2023/03/22 05:27:15;;;;;;;12.00;7.70;;;9.40;93.10;;;;;;1891091;76;21366;-58
2023/03/22 05:29:45;;;;;;;9.85;5.55;;;9.40;93.10;;;;;;1891704;76;21116;-59
2023/03/22 05:32:17;;;;;;;13.68;5.70;;;9.50;93.10;;;;;;1890575;76;21139;-58
2023/03/22 05:34:47;;;;;;;9.90;5.53;;;9.50;93.00;;;;;;1891971;76;21501;-59
2023/03/22 05:37:28;;;;;;;11.20;5.72;;;9.50;93.10;;;;;;1890663;76;21057;-59
2023/03/22 05:39:58;;;;;;;11.18;5.33;;;9.50;93.10;;;;;;1891697;76;21021;-59
2023/03/22 05:42:29;;;;;;;8.25;5.35;;;9.60;93.20;;;;;;1890035;76;21045;-59
2023/03/22 05:44:58;;;;;;;12.93;5.03;;;9.60;93.20;;;;;;1891802;76;21033;-58
2023/03/22 05:47:28;;;;;;;12.93;7.65;;;9.70;93.20;;;;;;1891796;76;21433;-58
2023/03/22 05:50:09;;;;;;;9.80;7.55;;;9.80;93.00;;;;;;1890661;76;21987;-59
2023/03/22 05:52:39;;;;;;;9.48;6.03;;;9.90;93.10;;;;;;1891797;76;21018;-59
2023/03/22 05:55:23;;;;;;;15.90;5.90;;;10.00;93.10;;;;;;1890422;76;21053;-59
2023/03/22 05:57:53;;;;;;;12.58;6.22;;;10.00;93.10;;;;;;1890996;76;21037;-59
2023/03/22 06:00:23;;;;;;;13.30;5.60;;;10.20;93.10;;;;;;1891751;76;21033;-59
2023/03/22 06:02:55;;;;;;;13.78;6.92;;;10.20;92.90;;;;;;1828014;76;21127;-59
2023/03/22 06:05:25;;;;;;;14.58;8.30;;;10.20;92.90;;;;;;1891885;76;21512;-59
2023/03/22 06:07:55;;;;;;;12.35;6.67;;;10.30;92.80;;;;;;1891818;76;21021;-59
2023/03/22 06:10:25;;;;;;;12.60;7.12;;;10.30;92.70;;;;;;1890822;76;21041;-59
2023/03/22 06:12:55;;;;;;;11.03;6.50;;;10.30;92.70;;;;;;1879216;76;21200;-59
2023/03/22 06:15:26;;;;;;;8.35;5.97;;;10.40;92.90;;;;;;1878378;76;21059;-59
2023/03/22 06:18:03;;;;;;;10.08;7.80;;;10.50;93.00;;;;;;1877671;76;21067;-59
2023/03/22 06:20:34;;;;;;;13.60;6.78;;;10.60;92.80;;;;;;1878278;76;21035;-59
2023/03/22 06:23:04;;;;;;;10.23;6.47;;;10.60;92.40;;;;;;1877958;76;21578;-59
2023/03/22 06:25:35;;;;;;;9.80;6.20;;;10.60;92.20;;;;;;1879168;76;21102;-59
2023/03/22 06:28:05;;;;;;;6.95;5.45;;;10.60;92.50;;;;;;1879122;76;21075;-59
2023/03/22 06:30:35;;;;;;;8.88;6.55;;;10.60;92.30;;;;;;1879210;76;21103;-59
2023/03/22 06:33:22;;;;;;;13.13;7.05;;;10.60;92.20;;;;;;1879323;76;21117;-59
2023/03/22 06:35:52;;;;;;;9.80;8.00;;;10.60;92.30;;;;;;1878499;76;21063;-59
2023/03/22 06:38:23;;;;;;;13.53;9.68;;;10.70;92.50;;;;;;1877799;76;21039;-59
2023/03/22 06:40:52;;;;;;;10.98;9.28;;;10.70;92.50;;;;;;1879432;76;21051;-59
2023/03/22 06:43:21;;;;;;;14.10;9.33;;;10.80;92.30;;;;;;1879446;76;21031;-59
2023/03/22 06:45:51;;;;;;;11.33;8.15;;;10.90;92.10;;;;;;1879438;76;21114;-59
2023/03/22 06:48:22;;;;;;;9.58;7.87;;;10.90;92.00;;;;;;1878632;76;21052;-59
2023/03/22 06:50:52;;;;;;;12.23;7.67;;;11.00;92.30;;;;;;1877343;76;21063;-59
2023/03/22 06:53:23;;;;;;;15.30;7.67;;;11.10;92.40;;;;;;1877846;76;21162;-60
2023/03/22 06:55:52;;;;;;;12.10;8.45;;;11.10;91.80;;;;;;1879309;76;21068;-59
2023/03/22 06:58:23;;;;;;;9.35;6.45;;;11.20;92.00;;;;;;1879140;76;21136;-58
2023/03/22 07:00:52;;;;;;;8.10;5.22;;;11.20;91.40;;;;;;1879514;76;21036;-60
2023/03/22 07:03:23;;;;;;;11.05;6.03;;;11.20;91.80;;;;;;1879302;76;21036;-60
2023/03/22 07:05:55;;;;;;;7.45;5.50;;;11.30;91.80;;;;;;1878714;76;21133;-60
2023/03/22 07:08:24;;;;;;;11.85;6.60;;;11.30;91.90;;;;;;1878212;76;21548;-59
2023/03/22 07:10:54;;;;;;;8.30;4.83;;;11.30;91.70;;;;;;1879233;76;21040;-60
2023/03/22 07:13:24;;;;;;;7.15;4.30;;;11.40;91.90;;;;;;1879206;76;21557;-59
2023/03/22 07:15:59;;;;;;;5.60;4.50;;;11.50;91.40;;;;;;1878883;76;21051;-58
2023/03/22 07:18:38;;;;;;;7.70;4.37;;;11.60;91.40;;;;;;1877325;76;21125;-58
2023/03/22 07:21:08;;;;;;;9.03;5.20;;;11.60;91.70;;;;;;1879080;76;21089;-58
2023/03/22 07:23:37;;;;;;;7.62;4.72;;;11.70;91.50;;;;;;1879258;76;21443;-60
2023/03/22 07:26:08;;;;;;;5.90;4.30;;;11.80;91.50;;;;;;1878584;76;21062;-60
2023/03/22 07:28:40;;;;;;;5.85;4.10;;;11.90;91.30;;;;;;1879049;76;21117;-60
2023/03/22 07:31:11;;;;;;;6.55;4.08;;;11.90;91.40;;;;;;1879299;76;21047;-58
2023/03/22 07:33:51;;;;;;;7.15;3.67;;;11.90;91.10;;;;;;1877157;76;21088;-59
2023/03/22 07:36:22;;;;;;;9.95;4.40;;;12.00;90.80;;;;;;1879439;76;21040;-60
2023/03/22 07:38:51;;;;;;;6.12;3.70;;;12.00;91.20;;;;;;1879269;76;21549;-59
2023/03/22 07:41:23;;;;;;;6.80;4.83;;;12.10;90.80;;;;;;1878073;76;21109;-59
2023/03/22 07:43:57;;;;;;;9.45;5.62;;;12.20;90.90;;;;;;1879365;75;21248;-58
2023/03/22 07:46:26;;;;;;;6.10;4.45;;;12.30;91.10;;;;;;1883466;75;21153;-60
2023/03/22 07:48:59;;;;;;;8.03;4.67;;;12.40;90.50;;;;;;1875456;75;21112;-58
2023/03/22 07:51:30;;;;;;;4.92;3.75;;;12.40;90.50;;;;;;1899127;75;21089;-60
2023/03/22 07:54:00;;;;;;;7.25;4.87;;;12.50;90.30;;;;;;1884134;75;21026;-60
2023/03/22 07:56:30;;;;;;;6.60;5.05;;;12.50;90.50;;;;;;1916049;75;21111;-58
2023/03/22 07:58:59;;;;;;;8.38;4.53;;;12.50;90.20;;;;;;1878205;75;21457;-60
2023/03/22 08:01:29;;;;;;;12.73;4.72;;;12.50;90.20;;;;;;1885444;75;21014;-59
2023/03/22 08:03:59;;;;;;;4.72;3.52;;;12.60;90.30;;;;;;1883728;75;21052;-59
2023/03/22 08:06:31;;;;;;;5.45;3.80;;;12.60;90.30;;;;;;1915443;74;21103;-60
2023/03/22 08:09:02;;;;;;;7.45;3.67;;;12.60;90.30;;;;;;1916725;75;21073;-57
2023/03/22 08:11:31;;;;;;;5.05;4.10;;;12.70;90.50;;;;;;1916209;75;21095;-58
2023/03/22 08:14:01;;;;;;;6.35;4.53;;;12.80;90.50;;;;;;1876627;75;21048;-58
2023/03/22 08:16:32;;;;;;;6.65;4.22;;;12.90;90.00;;;;;;1876512;76;21134;-60
2023/03/22 08:19:01;;;;;;;6.72;4.47;;;12.90;90.20;;;;;;1876718;76;21121;-60
2023/03/22 08:21:31;;;;;;;10.25;4.70;;;13.00;90.10;;;;;;1842673;76;21024;-59
2023/03/22 08:24:02;;;;;;;6.72;4.28;;;13.10;90.20;;;;;;1859731;76;21038;-60
2023/03/22 08:26:49;;;;;;;8.15;4.87;;;13.10;89.60;;;;;;1848228;78;21060;-58
2023/03/22 08:29:21;;;;;;;13.03;5.00;;;13.10;89.40;;;;;;1847611;76;21088;-60
2023/03/22 08:31:51;;;;;;;6.08;4.78;;;13.10;88.80;;;;;;1848076;78;21111;-58
2023/03/22 08:34:20;;;;;;;6.25;4.50;;;13.10;89.10;;;;;;1847982;78;21096;-60
2023/03/22 08:36:49;;;;;;;7.58;4.15;;;13.10;89.70;;;;;;1847884;78;21022;-60
2023/03/22 08:39:20;;;;;;;10.53;5.00;;;13.20;88.80;;;;;;1847904;78;21038;-60
2023/03/22 08:41:53;;;;;;;6.53;3.58;;;13.20;88.40;;;;;;1843477;76;21079;-60
2023/03/22 08:44:24;;;;;;;4.42;3.70;;;13.10;86.80;;;;;;1877155;75;21555;-58
2023/03/22 08:46:54;;;;;;;8.18;4.95;;;13.10;87.80;;;;;;1885812;75;21098;-60
2023/03/22 08:49:23;;;;;;;9.03;4.35;;;13.10;88.70;;;;;;1885812;76;21039;-60
2023/03/22 08:51:57;;;;;;;5.58;4.65;;;13.20;87.80;;;;;;1884936;76;21098;-60
2023/03/22 08:54:37;;;;;;;6.78;4.65;;;13.20;87.50;;;;;;1863722;75;21059;-59
2023/03/22 08:57:08;;;;;;;9.70;4.60;;;13.10;87.80;;;;;;1884452;76;21050;-59
2023/03/22 08:59:39;;;;;;;8.25;4.90;;;13.10;88.00;;;;;;1870968;76;21050;-58
2023/03/22 09:02:10;;;;;;;8.73;4.67;;;13.20;88.20;;;;;;1852790;76;21050;-58
2023/03/22 09:04:39;;;;;;;7.45;4.20;;;13.20;87.60;;;;;;1871959;76;21117;-59
2023/03/22 09:07:08;;;;;;;8.83;4.47;;;13.20;87.60;;;;;;1872192;76;21528;-58
2023/03/22 09:09:38;;;;;;;8.45;4.35;;;13.20;87.10;;;;;;1872119;76;21019;-59
2023/03/22 09:12:24;;;;;;;8.00;4.62;;;13.30;86.30;;;;;;1872150;76;21097;-58
2023/03/22 09:15:09;;;;;;;12.85;5.95;;;13.30;86.40;;;;;;1871940;75;21059;-58
2023/03/22 09:17:49;;;;;;;11.70;5.17;;;13.40;87.40;;;;;;1870637;76;21478;-59
